Time;durP1;ratioP1;P1;durP2;ratioP2;P2;SDS_P1;SDS_P2;PMS_P1;PMS_P2;Temp;Humidity;BMP_temperature;BMP_pressure;BME280_temperature;BME280_humidity;BME280_pressure;Samples;Min_cycle;Max_cycle;Signal;HPM_P1;HPM_P2
2022/04/02 00:01:43;;;;;;;11.33;7.27;;;-1.50;99.90;;;;;;4161470;28;20429;-69
2022/04/02 00:03:44;;;;;;;10.80;7.40;;;-1.40;99.90;;;;;;4163064;28;20183;-69
2022/04/02 00:05:44;;;;;;;12.20;8.00;;;-1.30;99.90;;;;;;4161806;28;20252;-70
2022/04/02 00:07:45;;;;;;;13.83;8.63;;;-1.30;99.90;;;;;;4162923;28;20212;-69
2022/04/02 00:09:46;;;;;;;15.20;9.80;;;-1.40;99.90;;;;;;4163125;28;20193;-69
2022/04/02 00:11:46;;;;;;;13.50;7.93;;;-1.60;99.90;;;;;;4162495;28;20200;-69
2022/04/02 00:13:47;;;;;;;12.93;8.37;;;-1.50;99.90;;;;;;4162658;28;20205;-70
2022/04/02 00:15:48;;;;;;;16.87;10.77;;;-1.50;99.90;;;;;;4162920;28;20226;-69
2022/04/02 00:17:49;;;;;;;13.53;8.53;;;-1.50;99.90;;;;;;4163010;28;20661;-70
2022/04/02 00:19:49;;;;;;;13.17;8.17;;;-1.60;99.90;;;;;;4162955;28;20182;-69
2022/04/02 00:21:50;;;;;;;16.63;10.97;;;-1.50;99.90;;;;;;4162512;28;20179;-69
2022/04/02 00:23:51;;;;;;;13.80;8.87;;;-1.40;99.90;;;;;;4162653;28;20198;-69
2022/04/02 00:25:51;;;;;;;16.80;10.17;;;-1.70;99.90;;;;;;4162735;28;20207;-70
2022/04/02 00:27:52;;;;;;;15.17;9.07;;;-1.60;99.90;;;;;;4162912;28;20189;-70
2022/04/02 00:29:53;;;;;;;14.47;9.77;;;-1.50;99.90;;;;;;4162804;28;20182;-69
2022/04/02 00:31:54;;;;;;;17.13;10.33;;;-1.50;99.90;;;;;;4162140;28;20175;-70
2022/04/02 00:33:55;;;;;;;15.40;10.07;;;-1.60;99.90;;;;;;4162215;28;20633;-69
2022/04/02 00:35:56;;;;;;;17.07;10.00;;;-1.40;99.90;;;;;;4161383;28;20446;-69
2022/04/02 00:37:56;;;;;;;15.00;9.33;;;-1.50;99.90;;;;;;4162670;28;20661;-69
2022/04/02 00:39:57;;;;;;;17.40;11.00;;;-1.50;99.90;;;;;;4162401;28;20188;-70
2022/04/02 00:41:57;;;;;;;16.53;9.83;;;-1.50;99.90;;;;;;4161624;28;20178;-70
2022/04/02 00:44:10;;;;;;;17.33;9.73;;;-1.50;99.90;;;;;;4162297;28;20215;-69
2022/04/02 00:46:12;;;;;;;15.73;9.60;;;-1.50;99.90;;;;;;4161167;28;20284;-69
2022/04/02 00:48:13;;;;;;;16.07;9.93;;;-1.40;99.90;;;;;;4162233;28;20445;-69
2022/04/02 00:50:14;;;;;;;17.87;11.13;;;-1.30;99.90;;;;;;4162142;28;20981;-69
2022/04/02 00:52:14;;;;;;;17.47;9.97;;;-1.60;99.90;;;;;;4161735;28;20552;-69
2022/04/02 00:54:18;;;;;;;19.10;11.83;;;-1.50;99.90;;;;;;4161088;28;20206;-70
2022/04/02 00:56:20;;;;;;;17.27;10.67;;;-1.70;99.90;;;;;;4161235;28;20913;-69
2022/04/02 00:58:21;;;;;;;17.27;10.33;;;-1.60;99.90;;;;;;4161234;28;20424;-70
2022/04/02 01:00:22;;;;;;;15.77;10.30;;;-1.70;99.90;;;;;;4162525;28;20437;-69
2022/04/02 01:02:22;;;;;;;18.40;9.80;;;-1.60;99.90;;;;;;4161843;28;20183;-70
2022/04/02 01:04:23;;;;;;;15.80;9.60;;;-1.60;99.90;;;;;;4161992;28;20316;-70
2022/04/02 01:06:24;;;;;;;16.73;9.90;;;-1.60;99.90;;;;;;4161819;28;20214;-69
2022/04/02 01:08:24;;;;;;;18.73;10.67;;;-1.50;99.90;;;;;;4162354;28;20322;-70
2022/04/02 01:10:25;;;;;;;19.20;11.57;;;-1.70;99.90;;;;;;4162266;28;20198;-69
2022/04/02 01:12:26;;;;;;;19.97;10.77;;;-1.60;99.90;;;;;;4161575;28;20186;-70
2022/04/02 01:14:26;;;;;;;17.77;10.77;;;-1.50;99.90;;;;;;4162094;28;20256;-70
2022/04/02 01:16:27;;;;;;;18.73;10.30;;;-1.40;99.90;;;;;;4162091;28;20889;-70
2022/04/02 01:18:28;;;;;;;24.97;12.73;;;-1.30;99.90;;;;;;4161947;28;20734;-70
2022/04/02 01:20:31;;;;;;;16.87;10.07;;;-1.40;99.90;;;;;;4161787;28;20580;-69
2022/04/02 01:22:31;;;;;;;17.83;9.47;;;-1.40;99.90;;;;;;4161462;28;20427;-70
2022/04/02 01:24:32;;;;;;;17.57;10.07;;;-1.40;99.90;;;;;;4161805;28;20411;-70
2022/04/02 01:26:33;;;;;;;16.03;9.93;;;-1.40;99.90;;;;;;4177030;28;20275;-69
2022/04/02 01:28:34;;;;;;;19.03;10.80;;;-1.40;99.90;;;;;;4161774;28;20662;-69
2022/04/02 01:30:34;;;;;;;17.57;10.43;;;-1.40;99.90;;;;;;4161980;28;20210;-68
2022/04/02 01:32:35;;;;;;;13.73;8.47;;;-1.50;99.90;;;;;;4161130;28;20205;-69
2022/04/02 01:34:36;;;;;;;16.70;10.03;;;-1.40;99.90;;;;;;4161780;28;20248;-69
2022/04/02 01:36:36;;;;;;;18.27;11.03;;;-1.50;99.90;;;;;;4161677;28;20216;-69
2022/04/02 01:38:37;;;;;;;15.73;9.80;;;-1.40;99.90;;;;;;4161778;28;20650;-69
2022/04/02 01:40:38;;;;;;;16.23;9.70;;;-1.50;99.90;;;;;;4161841;28;20217;-69
2022/04/02 01:42:38;;;;;;;14.63;9.00;;;-1.50;99.90;;;;;;4161247;28;20642;-69
2022/04/02 01:44:41;;;;;;;14.87;8.80;;;-1.40;99.90;;;;;;4161857;28;20597;-69
2022/04/02 01:46:42;;;;;;;14.90;9.47;;;-1.50;99.90;;;;;;4161524;28;20664;-69
2022/04/02 01:48:43;;;;;;;13.00;8.13;;;-1.50;99.90;;;;;;4161800;28;20436;-69
2022/04/02 01:50:43;;;;;;;13.73;8.63;;;-1.50;99.90;;;;;;4162020;28;20855;-70
2022/04/02 01:52:44;;;;;;;15.33;7.90;;;-1.50;99.90;;;;;;4160774;28;20444;-70
2022/04/02 01:54:49;;;;;;;13.87;8.53;;;-1.40;99.90;;;;;;4160591;28;20212;-69
2022/04/02 01:56:49;;;;;;;12.67;7.40;;;-1.40;99.90;;;;;;4161292;28;20300;-69
2022/04/02 01:58:50;;;;;;;14.50;8.30;;;-1.40;99.90;;;;;;4160705;28;20919;-70
2022/04/02 02:00:51;;;;;;;15.93;8.73;;;-1.50;99.90;;;;;;4160715;28;20678;-69
2022/04/02 02:02:51;;;;;;;13.13;8.83;;;-1.50;99.90;;;;;;4160443;28;20559;-69
2022/04/02 02:04:52;;;;;;;12.97;7.60;;;-1.30;99.90;;;;;;4160145;28;20178;-69
2022/04/02 02:06:53;;;;;;;12.60;7.57;;;-1.30;99.90;;;;;;4161243;28;20210;-69
2022/04/02 02:08:54;;;;;;;12.70;7.90;;;-1.40;99.90;;;;;;4161641;28;20174;-70
2022/04/02 02:10:55;;;;;;;10.03;6.33;;;-1.30;99.90;;;;;;4161388;28;20425;-72
2022/04/02 02:12:56;;;;;;;12.33;8.27;;;-1.30;99.90;;;;;;4159449;28;20181;-69
2022/04/02 02:14:57;;;;;;;11.03;7.13;;;-1.30;99.90;;;;;;4160252;28;20419;-70
2022/04/02 02:16:58;;;;;;;9.67;6.23;;;-1.40;99.90;;;;;;4163084;28;20225;-70
2022/04/02 02:18:58;;;;;;;9.77;6.50;;;-1.30;99.90;;;;;;4164287;28;20796;-69
2022/04/02 02:21:00;;;;;;;8.83;5.97;;;-1.30;99.90;;;;;;4162968;28;20217;-70
2022/04/02 02:23:00;;;;;;;10.13;6.53;;;-1.40;99.90;;;;;;4163350;28;20190;-70
2022/04/02 02:25:01;;;;;;;10.53;7.33;;;-1.40;99.90;;;;;;4164183;28;20807;-69
2022/04/02 02:27:01;;;;;;;9.03;6.57;;;-1.30;99.90;;;;;;4164401;28;20589;-70
2022/04/02 02:29:06;;;;;;;9.17;6.83;;;-1.20;99.90;;;;;;4164165;28;20716;-69
2022/04/02 02:31:07;;;;;;;9.70;6.23;;;-1.30;99.90;;;;;;4163779;28;20220;-69
2022/04/02 02:37:45;;;;;;;8.63;5.50;;;-1.20;99.90;;;;;;4164294;28;20503;-70
2022/04/02 02:39:46;;;;;;;7.27;5.40;;;-1.20;99.90;;;;;;4164267;28;20462;-70
2022/04/02 02:41:47;;;;;;;9.63;5.97;;;-1.20;99.90;;;;;;4163510;28;20236;-69
2022/04/02 02:43:48;;;;;;;11.07;7.00;;;-1.20;99.90;;;;;;4164623;28;20188;-69
2022/04/02 02:45:50;;;;;;;9.33;5.67;;;-1.30;99.90;;;;;;4164595;28;20214;-69
2022/04/02 02:47:52;;;;;;;7.47;5.60;;;-1.20;99.90;;;;;;4164229;28;20732;-70
2022/04/02 02:49:53;;;;;;;9.23;6.50;;;-1.20;99.90;;;;;;4164187;28;20433;-69
2022/04/02 02:51:54;;;;;;;8.90;6.33;;;-1.20;99.90;;;;;;4163273;28;20485;-70
2022/04/02 02:53:55;;;;;;;8.40;5.67;;;-1.20;99.90;;;;;;4162578;28;20933;-70
2022/04/02 02:55:55;;;;;;;9.17;6.60;;;-1.20;99.90;;;;;;4164169;28;20635;-69
2022/04/02 02:57:56;;;;;;;8.47;6.00;;;-1.30;99.90;;;;;;4163917;28;20845;-70
2022/04/02 02:59:57;;;;;;;8.27;5.70;;;-1.40;99.90;;;;;;4162732;28;20264;-69
2022/04/02 03:01:58;;;;;;;8.63;5.77;;;-1.40;99.90;;;;;;4161632;28;20281;-69
2022/04/02 03:03:58;;;;;;;7.27;5.50;;;-1.40;99.90;;;;;;4163920;28;20287;-69
2022/04/02 03:05:59;;;;;;;8.00;6.17;;;-1.40;99.90;;;;;;4164142;28;20585;-69
2022/04/02 03:08:01;;;;;;;8.03;5.33;;;-1.40;99.90;;;;;;4162518;28;20188;-71
2022/04/02 03:10:01;;;;;;;7.03;5.10;;;-1.30;99.90;;;;;;4163660;28;20247;-69
2022/04/02 03:12:02;;;;;;;8.13;5.63;;;-1.30;99.90;;;;;;4162819;28;20460;-69
2022/04/02 03:14:03;;;;;;;9.53;6.83;;;-1.30;99.90;;;;;;4163687;28;20289;-69
2022/04/02 03:16:04;;;;;;;7.80;5.33;;;-1.40;99.90;;;;;;4163912;28;20199;-69
2022/04/02 03:18:08;;;;;;;7.07;5.07;;;-1.40;99.90;;;;;;4163973;28;20223;-69
2022/04/02 03:20:11;;;;;;;8.73;6.87;;;-1.30;99.90;;;;;;4162599;28;20460;-69
2022/04/02 03:22:12;;;;;;;7.03;5.17;;;-1.40;99.90;;;;;;4163010;28;20448;-69
2022/04/02 03:24:13;;;;;;;7.50;5.53;;;-1.40;99.90;;;;;;4163404;28;20439;-69
2022/04/02 03:26:14;;;;;;;7.37;5.13;;;-1.40;99.90;;;;;;4163236;28;20206;-69
2022/04/02 03:28:14;;;;;;;7.27;5.03;;;-1.40;99.90;;;;;;4163561;28;20510;-68
2022/04/02 03:30:19;;;;;;;7.47;5.03;;;-1.40;99.90;;;;;;4163597;28;20213;-69
2022/04/02 03:32:19;;;;;;;7.90;5.13;;;-1.40;99.90;;;;;;4162847;28;20282;-68
2022/04/02 03:34:21;;;;;;;6.80;4.90;;;-1.30;99.90;;;;;;4163795;28;20503;-68
2022/04/02 03:36:21;;;;;;;7.37;5.47;;;-1.30;99.90;;;;;;4163929;28;20343;-68
2022/04/02 03:38:22;;;;;;;6.00;4.20;;;-1.20;99.90;;;;;;4163895;28;20428;-69
2022/04/02 03:40:26;;;;;;;6.47;5.20;;;-1.20;99.90;;;;;;4163477;28;20205;-68
2022/04/02 03:42:27;;;;;;;7.10;5.20;;;-1.50;99.90;;;;;;4162924;28;20187;-69
2022/04/02 03:44:28;;;;;;;6.43;5.17;;;-1.40;99.90;;;;;;4163605;28;20999;-72
2022/04/02 03:48:47;;;;;;;6.23;4.53;;;-1.30;99.90;;;;;;4163535;28;20675;-69
2022/04/02 03:50:48;;;;;;;5.87;4.90;;;-1.20;99.90;;;;;;4163286;28;20436;-68
2022/04/02 03:52:49;;;;;;;6.60;4.73;;;-1.20;99.90;;;;;;4162812;28;20190;-69
2022/04/02 03:54:49;;;;;;;5.97;4.47;;;-1.20;99.90;;;;;;4163509;28;20190;-69
2022/04/02 03:56:50;;;;;;;5.90;4.00;;;-1.20;99.90;;;;;;4162178;28;20210;-70
2022/04/02 03:58:51;;;;;;;5.40;4.13;;;-1.30;99.90;;;;;;4163365;28;20625;-71
2022/04/02 04:00:53;;;;;;;5.80;4.40;;;-1.30;99.90;;;;;;4163369;28;20208;-70
2022/04/02 04:02:53;;;;;;;5.57;4.53;;;-1.40;99.90;;;;;;4161441;28;20627;-70
2022/04/02 04:04:54;;;;;;;5.63;4.20;;;-1.50;99.90;;;;;;4163174;28;20420;-71
2022/04/02 04:06:56;;;;;;;6.70;5.20;;;-1.30;99.90;;;;;;4162305;28;20197;-70
2022/04/02 04:08:58;;;;;;;5.53;4.23;;;-1.30;99.90;;;;;;4162424;28;20181;-70
2022/04/02 04:10:59;;;;;;;6.47;4.40;;;-1.20;99.90;;;;;;4162712;28;20933;-70
2022/04/02 04:12:59;;;;;;;5.83;4.27;;;-1.30;99.90;;;;;;4162308;28;20434;-70
2022/04/02 04:15:00;;;;;;;6.10;4.63;;;-1.20;99.90;;;;;;4162638;28;20211;-70
2022/04/02 04:17:01;;;;;;;5.83;4.43;;;-1.20;99.90;;;;;;4162824;28;20198;-69
2022/04/02 04:19:02;;;;;;;7.13;5.23;;;-1.30;99.90;;;;;;4162283;28;21007;-69
2022/04/02 04:21:03;;;;;;;6.60;4.70;;;-1.30;99.90;;;;;;4162225;28;20190;-69
2022/04/02 04:23:04;;;;;;;5.30;4.30;;;-1.30;99.90;;;;;;4162089;28;20919;-69
2022/04/02 04:25:05;;;;;;;5.00;4.13;;;-1.40;99.90;;;;;;4162881;28;20683;-69
2022/04/02 04:27:06;;;;;;;6.40;4.67;;;-1.30;99.90;;;;;;4162523;28;20204;-70
2022/04/02 04:29:06;;;;;;;6.63;5.13;;;-1.20;99.90;;;;;;4160852;28;20436;-70
2022/04/02 04:31:07;;;;;;;6.10;4.77;;;-1.20;99.90;;;;;;4161593;28;20684;-70
2022/04/02 04:33:09;;;;;;;6.43;4.33;;;-1.30;99.90;;;;;;4160620;28;20317;-70
2022/04/02 04:35:10;;;;;;;5.37;4.37;;;-1.20;99.90;;;;;;4162293;28;20427;-70
2022/04/02 04:37:10;;;;;;;6.90;4.47;;;-1.30;99.90;;;;;;4162426;28;20426;-70
2022/04/02 04:39:11;;;;;;;5.77;4.57;;;-1.40;99.90;;;;;;4161407;28;20201;-70
2022/04/02 04:41:13;;;;;;;7.67;4.60;;;-1.40;99.90;;;;;;4161674;28;20239;-70
2022/04/02 04:43:13;;;;;;;6.73;5.00;;;-1.40;99.90;;;;;;4162174;28;20238;-71
2022/04/02 04:45:14;;;;;;;6.73;4.43;;;-1.40;99.90;;;;;;4162147;28;20426;-70
2022/04/02 04:47:15;;;;;;;7.57;5.43;;;-1.40;99.90;;;;;;4162504;28;20210;-70
2022/04/02 04:49:15;;;;;;;5.87;4.37;;;-1.30;99.90;;;;;;4162124;28;20226;-70
2022/04/02 04:51:18;;;;;;;6.03;4.20;;;-1.20;99.90;;;;;;4161771;28;20227;-70
2022/04/02 04:53:19;;;;;;;7.37;5.57;;;-1.20;99.90;;;;;;4162062;28;20214;-70
2022/04/02 04:55:19;;;;;;;6.60;5.07;;;-1.20;99.90;;;;;;4162311;28;20496;-70
2022/04/02 04:57:20;;;;;;;7.67;5.50;;;-1.30;99.90;;;;;;4162244;28;20218;-70
2022/04/02 04:59:21;;;;;;;7.50;5.70;;;-1.30;99.90;;;;;;4160537;28;20197;-70
2022/04/02 05:01:22;;;;;;;7.63;5.47;;;-1.40;99.90;;;;;;4160840;28;20715;-70
2022/04/02 05:03:24;;;;;;;8.17;5.17;;;-1.30;99.90;;;;;;4162042;28;20182;-70
2022/04/02 05:05:27;;;;;;;8.20;5.77;;;-1.20;99.90;;;;;;4160796;28;20430;-71
2022/04/02 05:07:29;;;;;;;7.73;5.27;;;-1.30;99.90;;;;;;4162073;28;20439;-70
2022/04/02 05:09:30;;;;;;;7.63;5.40;;;-1.40;99.90;;;;;;4160379;28;20452;-70
2022/04/02 05:11:31;;;;;;;8.33;6.00;;;-1.20;99.90;;;;;;4160185;28;20435;-70
2022/04/02 05:13:32;;;;;;;7.60;5.53;;;-1.30;99.90;;;;;;4161754;28;20214;-70
2022/04/02 05:15:35;;;;;;;7.07;5.30;;;-1.20;99.90;;;;;;4161759;28;20546;-70
2022/04/02 05:17:37;;;;;;;8.73;6.20;;;-1.40;99.90;;;;;;4161270;28;20444;-70
2022/04/02 05:19:38;;;;;;;8.63;6.23;;;-1.40;99.90;;;;;;4161617;28;20424;-70
2022/04/02 05:21:38;;;;;;;6.87;5.40;;;-1.40;99.90;;;;;;4161085;28;20537;-69
2022/04/02 05:23:39;;;;;;;7.87;5.53;;;-1.40;99.90;;;;;;4161546;28;20237;-69
2022/04/02 05:25:40;;;;;;;7.67;5.70;;;-1.40;99.90;;;;;;4161406;28;20211;-69
2022/04/02 05:27:41;;;;;;;7.83;5.67;;;-1.30;99.90;;;;;;4160107;28;20221;-69
2022/04/02 05:29:42;;;;;;;7.37;5.70;;;-1.30;99.90;;;;;;4160629;28;20195;-69
2022/04/02 05:31:42;;;;;;;7.33;5.23;;;-1.30;99.90;;;;;;4160946;28;20478;-70
2022/04/02 05:33:43;;;;;;;7.20;5.40;;;-1.30;99.90;;;;;;4161222;28;20218;-70
2022/04/02 05:35:43;;;;;;;7.20;5.00;;;-1.20;99.90;;;;;;4161418;28;20210;-69
2022/04/02 05:37:45;;;;;;;6.63;4.97;;;-1.30;99.90;;;;;;4161363;28;20194;-69
2022/04/02 05:39:46;;;;;;;7.63;5.73;;;-1.30;99.90;;;;;;4161512;28;20265;-69
2022/04/02 05:41:48;;;;;;;6.43;5.00;;;-1.30;99.90;;;;;;4159835;28;20790;-70
2022/04/02 05:43:48;;;;;;;6.63;5.20;;;-1.20;99.90;;;;;;4161522;28;20188;-69
2022/04/02 05:45:49;;;;;;;6.23;4.70;;;-1.10;99.90;;;;;;4161505;28;20480;-69
2022/04/02 05:47:52;;;;;;;7.43;5.07;;;-1.10;99.90;;;;;;4160640;28;20263;-69
2022/04/02 05:49:52;;;;;;;8.93;5.87;;;-1.20;99.90;;;;;;4162849;28;20197;-69
2022/04/02 05:51:53;;;;;;;8.37;5.50;;;-1.30;99.90;;;;;;4164055;28;20455;-69
2022/04/02 05:53:54;;;;;;;7.57;5.50;;;-1.30;99.90;;;;;;4164581;28;20223;-70
2022/04/02 05:55:54;;;;;;;7.03;5.03;;;-1.20;99.90;;;;;;4164711;28;20210;-69
2022/04/02 05:57:55;;;;;;;7.37;5.30;;;-1.40;99.90;;;;;;4164091;28;20217;-69
2022/04/02 05:59:56;;;;;;;7.73;5.77;;;-1.30;99.90;;;;;;4163743;28;20248;-69
2022/04/02 06:01:57;;;;;;;9.10;5.50;;;-1.20;99.90;;;;;;4164068;28;20638;-69
2022/04/02 06:03:59;;;;;;;7.53;5.30;;;-1.10;99.90;;;;;;4164466;28;20490;-69
2022/04/02 06:06:00;;;;;;;6.03;5.00;;;-1.10;99.90;;;;;;4164429;28;20204;-70
2022/04/02 06:08:01;;;;;;;11.50;6.33;;;-1.10;99.90;;;;;;4162913;28;20445;-70
2022/04/02 06:10:04;;;;;;;7.43;5.37;;;-1.30;99.90;;;;;;4164354;28;20195;-69
2022/04/02 06:12:05;;;;;;;6.67;5.37;;;-1.20;99.90;;;;;;4162462;28;20189;-69
2022/04/02 06:14:06;;;;;;;7.63;5.17;;;-1.40;99.90;;;;;;4163783;28;20476;-69
2022/04/02 06:16:06;;;;;;;6.97;5.17;;;-1.50;99.90;;;;;;4164534;28;20474;-70
2022/04/02 06:18:07;;;;;;;7.13;5.13;;;-1.50;99.90;;;;;;4164155;28;20181;-69
2022/04/02 06:20:08;;;;;;;7.50;5.80;;;-1.40;99.90;;;;;;4164316;28;20193;-70
2022/04/02 06:22:09;;;;;;;8.97;5.07;;;-1.30;99.90;;;;;;4163582;28;20215;-68
2022/04/02 06:24:10;;;;;;;7.03;5.20;;;-1.30;99.90;;;;;;4163031;28;20422;-69
2022/04/02 06:26:10;;;;;;;9.97;6.00;;;-1.40;99.90;;;;;;4162735;28;20210;-70
2022/04/02 06:28:11;;;;;;;8.27;5.77;;;-1.40;99.90;;;;;;4178850;28;20190;-70
2022/04/02 06:30:22;;;;;;;7.30;5.00;;;-1.40;99.90;;;;;;4162987;28;20211;-70
2022/04/02 06:32:24;;;;;;;7.17;4.87;;;-1.40;99.90;;;;;;4162375;28;20202;-70
2022/04/02 06:34:25;;;;;;;8.10;5.37;;;-1.40;99.90;;;;;;4164210;28;20476;-70
2022/04/02 06:36:26;;;;;;;7.40;6.07;;;-1.30;99.90;;;;;;4163854;28;20510;-70
2022/04/02 06:38:27;;;;;;;10.93;5.97;;;-1.40;99.90;;;;;;4163673;28;20620;-70
2022/04/02 06:40:28;;;;;;;6.47;5.10;;;-1.30;99.90;;;;;;4162707;28;20511;-70
2022/04/02 06:42:29;;;;;;;7.83;5.47;;;-1.20;99.90;;;;;;4163303;28;20225;-70
2022/04/02 06:44:30;;;;;;;8.17;5.30;;;-1.10;99.90;;;;;;4164007;28;20433;-70
2022/04/02 06:46:30;;;;;;;6.00;4.80;;;-1.10;99.90;;;;;;4163974;28;20214;-70
2022/04/02 06:48:31;;;;;;;6.43;4.60;;;-1.00;99.90;;;;;;4163534;28;20203;-70
2022/04/02 06:50:31;;;;;;;5.90;4.30;;;-1.00;99.90;;;;;;4162796;28;20195;-70
2022/04/02 06:52:33;;;;;;;7.07;5.27;;;-0.80;99.90;;;;;;4163354;28;20271;-70
2022/04/02 06:54:33;;;;;;;6.10;4.73;;;-1.00;99.90;;;;;;4164035;28;20696;-69
2022/04/02 06:56:34;;;;;;;5.73;3.97;;;-0.80;99.90;;;;;;4164055;28;20486;-69
2022/04/02 06:58:38;;;;;;;4.80;4.30;;;-0.90;99.90;;;;;;4163670;28;20195;-69
2022/04/02 07:00:39;;;;;;;6.30;4.10;;;-0.60;99.90;;;;;;4162015;28;20230;-69
2022/04/02 07:02:40;;;;;;;5.83;4.37;;;-0.60;99.90;;;;;;4162854;28;20936;-69
2022/04/02 07:04:41;;;;;;;6.63;3.87;;;-0.40;99.90;;;;;;4163714;28;20191;-69
2022/04/02 07:06:44;;;;;;;6.00;4.03;;;-0.50;99.90;;;;;;4162240;28;20468;-69
2022/04/02 07:08:44;;;;;;;6.30;4.07;;;-0.60;99.90;;;;;;4163734;28;20291;-69
2022/04/02 07:10:45;;;;;;;7.77;5.90;;;-0.50;99.90;;;;;;4163448;28;20448;-70
2022/04/02 07:12:46;;;;;;;4.60;3.40;;;-0.80;99.90;;;;;;4162836;28;20180;-70
2022/04/02 07:14:47;;;;;;;6.00;4.33;;;-0.70;99.90;;;;;;4163332;28;20212;-70
2022/04/02 07:16:47;;;;;;;4.27;3.20;;;-0.70;99.90;;;;;;4163228;28;20211;-70
2022/04/02 07:18:49;;;;;;;5.87;4.93;;;-0.80;99.90;;;;;;4163557;28;20643;-70
2022/04/02 07:20:51;;;;;;;4.30;3.43;;;-0.80;99.90;;;;;;4163473;28;20183;-70
2022/04/02 07:22:53;;;;;;;6.30;4.07;;;-0.80;99.90;;;;;;4161778;28;20811;-70
2022/04/02 07:24:56;;;;;;;5.90;4.07;;;-0.70;99.90;;;;;;4162236;28;20464;-70
2022/04/02 07:26:57;;;;;;;5.83;4.57;;;-0.60;99.90;;;;;;4162962;28;20461;-69
2022/04/02 07:28:59;;;;;;;4.90;4.23;;;-0.70;99.90;;;;;;4163270;28;20802;-69
2022/04/02 07:31:00;;;;;;;6.80;3.77;;;-0.60;99.90;;;;;;4163447;28;20422;-69
2022/04/02 07:33:02;;;;;;;5.47;4.40;;;-0.60;99.90;;;;;;4161314;28;20543;-69
2022/04/02 07:35:03;;;;;;;4.50;3.90;;;-0.40;99.90;;;;;;4162959;28;20184;-69
2022/04/02 07:37:13;;;;;;;4.50;3.50;;;-0.40;99.90;;;;;;4161796;28;21134;-69
2022/04/02 07:39:17;;;;;;;3.73;3.33;;;-0.30;99.90;;;;;;4161843;28;20430;-69
2022/04/02 07:41:43;;;;;;;4.03;3.40;;;-0.10;99.90;;;;;;4161268;28;20427;-69
2022/04/02 07:44:08;;;;;;;6.30;3.67;;;-0.10;99.90;;;;;;4161838;28;20977;-69
2022/04/02 07:46:17;;;;;;;5.27;4.67;;;-0.30;99.90;;;;;;4145626;28;20450;-69
2022/04/02 07:48:20;;;;;;;5.60;3.90;;;-0.40;99.90;;;;;;4145285;28;20485;-69
2022/04/02 07:50:25;;;;;;;4.17;3.77;;;-0.30;99.90;;;;;;4161688;28;20579;-69
2022/04/02 07:52:27;;;;;;;4.93;3.80;;;-0.30;99.90;;;;;;4146005;28;20445;-69
2022/04/02 07:54:30;;;;;;;5.43;4.20;;;-0.20;99.90;;;;;;4150938;28;20564;-69
2022/04/02 07:56:38;;;;;;;4.97;3.77;;;-0.10;99.90;;;;;;4161403;28;20471;-69
2022/04/02 07:58:46;;;;;;;3.90;3.07;;;-0.10;99.90;;;;;;4161612;28;20437;-69
2022/04/02 08:00:54;;;;;;;5.17;3.50;;;0.00;99.90;;;;;;4163075;28;20430;-69
2022/04/02 08:02:56;;;;;;;4.80;3.70;;;-0.20;99.90;;;;;;4162434;28;20428;-69
2022/04/02 08:05:00;;;;;;;4.57;3.67;;;0.00;99.90;;;;;;4162614;28;20524;-69
2022/04/02 08:07:00;;;;;;;4.77;3.50;;;0.00;99.90;;;;;;4162260;28;20450;-69
2022/04/02 08:09:03;;;;;;;5.33;4.30;;;0.10;99.90;;;;;;4161334;28;20433;-69
2022/04/02 08:11:03;;;;;;;3.67;3.27;;;0.20;99.90;;;;;;4160794;28;20687;-69
2022/04/02 08:13:05;;;;;;;3.87;3.37;;;0.40;99.90;;;;;;4161012;28;20527;-69
2022/04/02 08:15:10;;;;;;;4.43;3.80;;;0.50;99.90;;;;;;4161091;28;20309;-69
2022/04/02 08:17:12;;;;;;;4.13;3.47;;;0.60;99.10;;;;;;4161440;28;20918;-70
2022/04/02 08:19:14;;;;;;;3.30;2.90;;;0.50;99.80;;;;;;4158976;28;20461;-70
2022/04/02 08:21:15;;;;;;;4.00;2.87;;;0.50;99.50;;;;;;4161675;28;20412;-70
2022/04/02 08:23:16;;;;;;;3.47;2.53;;;0.70;99.90;;;;;;4155569;28;20473;-70
2022/04/02 08:25:17;;;;;;;4.43;3.43;;;1.10;99.80;;;;;;4162539;28;20518;-70
2022/04/02 08:27:46;;;;;;;3.47;2.80;;;0.90;98.40;;;;;;4161471;28;20189;-70
2022/04/02 08:29:57;;;;;;;3.33;3.03;;;1.00;99.40;;;;;;4146425;28;20431;-70
2022/04/02 08:32:17;;;;;;;4.37;2.80;;;0.70;98.30;;;;;;4144228;28;20444;-70
2022/04/02 08:34:47;;;;;;;3.13;2.80;;;0.60;99.90;;;;;;4144704;28;20603;-70
2022/04/02 08:37:17;;;;;;;4.13;3.20;;;0.40;99.20;;;;;;4163479;28;20470;-68
2022/04/02 08:39:26;;;;;;;3.97;3.40;;;0.40;99.20;;;;;;4161111;28;20427;-69
2022/04/02 08:42:17;;;;;;;3.00;2.70;;;0.50;99.20;;;;;;4159296;28;20576;-69
2022/04/02 08:44:51;;;;;;;4.93;2.93;;;0.60;99.30;;;;;;4176801;28;20440;-69
2022/04/02 08:47:09;;;;;;;4.13;3.60;;;0.80;99.30;;;;;;4163949;28;20459;-71
2022/04/02 08:49:39;;;;;;;3.83;2.63;;;0.60;97.60;;;;;;4173393;28;20446;-70
2022/04/02 08:51:43;;;;;;;3.40;2.90;;;0.50;99.50;;;;;;4160726;28;20474;-70
2022/04/02 08:54:05;;;;;;;3.93;3.53;;;0.40;99.10;;;;;;4176831;28;20497;-70
2022/04/02 08:56:09;;;;;;;3.83;3.43;;;0.40;98.90;;;;;;4178468;28;20475;-71
2022/04/02 08:58:33;;;;;;;3.27;2.83;;;0.20;99.70;;;;;;4178406;28;20438;-71
2022/04/02 09:00:40;;;;;;;2.97;2.57;;;0.50;99.90;;;;;;4175334;28;20419;-70
2022/04/02 09:03:37;;;;;;;4.43;2.97;;;0.50;99.90;;;;;;4161133;28;20434;-69
2022/04/02 09:06:38;;;;;;;4.67;2.83;;;0.70;99.70;;;;;;4161894;28;20439;-71
2022/04/02 09:08:53;;;;;;;3.33;2.57;;;0.70;99.40;;;;;;4153701;28;21107;-71
2022/04/02 09:11:27;;;;;;;3.87;3.20;;;0.40;98.70;;;;;;4161852;28;20420;-68
2022/04/02 09:14:05;;;;;;;4.63;3.23;;;0.20;99.90;;;;;;4160534;28;21021;-69
2022/04/02 09:16:09;;;;;;;4.20;3.03;;;0.30;99.90;;;;;;4162068;28;20450;-70
2022/04/02 09:18:36;;;;;;;3.40;2.90;;;0.20;99.90;;;;;;4160298;28;20488;-70
2022/04/02 09:20:54;;;;;;;4.10;2.80;;;0.30;99.90;;;;;;4161647;28;20430;-70
2022/04/02 09:23:44;;;;;;;4.30;3.03;;;0.30;99.90;;;;;;4161269;28;20431;-70
2022/04/02 09:26:13;;;;;;;4.30;3.57;;;0.40;99.90;;;;;;4161612;28;20495;-70
2022/04/02 09:28:31;;;;;;;3.73;3.20;;;0.30;99.90;;;;;;4160718;28;20965;-70
2022/04/02 09:31:13;;;;;;;3.73;2.83;;;0.00;99.90;;;;;;4161362;28;20423;-68
2022/04/02 09:33:46;;;;;;;3.30;2.83;;;0.00;99.90;;;;;;4157416;28;21359;-70
2022/04/02 09:36:16;;;;;;;3.23;2.67;;;0.20;99.90;;;;;;4161317;28;20474;-70
2022/04/02 09:38:50;;;;;;;2.97;2.53;;;0.80;99.90;;;;;;4160880;28;20918;-70
2022/04/02 09:40:52;;;;;;;3.47;2.50;;;1.20;97.60;;;;;;4156754;28;20453;-69
2022/04/02 09:43:00;;;;;;;3.07;2.47;;;1.40;96.10;;;;;;4150801;28;20459;-75
2022/04/02 09:45:12;;;;;;;4.57;4.10;;;1.40;97.40;;;;;;4157032;28;20482;-75
2022/04/02 09:47:47;;;;;;;3.40;2.63;;;0.80;96.80;;;;;;4167234;28;20435;-71
2022/04/02 09:50:12;;;;;;;2.53;2.17;;;0.80;99.40;;;;;;4145886;28;20439;-71
2022/04/02 09:52:22;;;;;;;2.60;2.30;;;1.20;99.90;;;;;;4165461;28;20450;-68
2022/04/02 09:55:02;;;;;;;2.70;2.20;;;1.60;99.40;;;;;;4167484;28;20474;-69
2022/04/02 09:57:26;;;;;;;2.80;2.50;;;2.00;94.70;;;;;;4161472;28;20488;-72
2022/04/02 10:00:00;;;;;;;2.40;2.00;;;2.00;93.40;;;;;;4157898;28;20451;-71
2022/04/02 10:02:05;;;;;;;3.47;2.60;;;2.30;93.20;;;;;;4157657;28;20467;-71
2022/04/02 10:04:48;;;;;;;2.87;2.53;;;2.40;93.80;;;;;;4172289;28;20447;-69
2022/04/02 10:06:55;;;;;;;2.93;2.30;;;2.50;93.70;;;;;;4168302;28;20441;-69
2022/04/02 10:09:05;;;;;;;2.77;2.30;;;2.70;91.70;;;;;;4166535;28;20465;-70
2022/04/02 10:11:11;;;;;;;4.00;2.50;;;2.50;91.80;;;;;;4171208;28;21029;-68
2022/04/02 10:13:13;;;;;;;3.17;2.50;;;2.50;93.00;;;;;;4162599;28;20443;-69
2022/04/02 10:15:17;;;;;;;2.70;2.33;;;2.10;92.50;;;;;;4172727;28;20557;-71
2022/04/02 10:17:25;;;;;;;5.30;3.30;;;1.90;94.40;;;;;;4162390;28;20460;-68
2022/04/02 10:19:35;;;;;;;3.67;2.30;;;1.70;93.80;;;;;;4173395;28;20460;-68
2022/04/02 10:21:38;;;;;;;2.70;2.30;;;1.80;94.00;;;;;;4159130;28;20439;-70
2022/04/02 10:23:52;;;;;;;3.17;2.63;;;1.70;94.90;;;;;;4175864;28;20442;-70
2022/04/02 10:26:18;;;;;;;4.73;2.77;;;1.90;94.30;;;;;;4159971;28;20466;-68
2022/04/02 10:28:27;;;;;;;2.50;2.23;;;1.60;93.70;;;;;;4158584;28;20436;-71
2022/04/02 10:30:31;;;;;;;3.77;3.10;;;1.80;92.90;;;;;;4166335;28;20938;-70
2022/04/02 10:35:26;;;;;;;4.07;3.63;;;1.20;97.30;;;;;;4161858;28;20523;-69
2022/04/02 10:37:39;;;;;;;6.13;2.90;;;1.10;94.40;;;;;;4161727;28;20443;-70
2022/04/02 10:39:52;;;;;;;3.03;2.40;;;1.30;98.70;;;;;;4180838;28;20476;-69
2022/04/02 10:42:07;;;;;;;2.77;2.43;;;1.40;96.40;;;;;;4147747;28;20432;-71
2022/04/02 10:44:43;;;;;;;3.83;2.20;;;1.40;95.30;;;;;;4176031;28;20427;-70
2022/04/02 10:46:49;;;;;;;3.23;2.63;;;1.50;94.40;;;;;;4163836;28;20462;-71
2022/04/02 10:49:05;;;;;;;2.53;2.33;;;1.50;94.60;;;;;;4170508;28;20459;-70
2022/04/02 10:51:08;;;;;;;3.23;2.93;;;1.30;93.60;;;;;;4169285;28;20430;-70
2022/04/02 10:53:13;;;;;;;3.57;3.00;;;1.40;94.80;;;;;;4167596;28;20435;-71
2022/04/02 10:55:22;;;;;;;3.40;2.97;;;1.00;95.80;;;;;;4169249;28;20443;-72
2022/04/02 10:57:24;;;;;;;2.97;2.67;;;1.40;97.00;;;;;;4169253;28;20443;-73
2022/04/02 10:59:31;;;;;;;4.03;2.30;;;2.00;94.80;;;;;;4178846;28;20877;-71
2022/04/02 11:01:32;;;;;;;3.00;2.70;;;2.40;92.90;;;;;;4165448;28;20422;-71